sensor_id;sensor_type;location;lat;lon;timestamp;P1;durP1;ratioP1;P2;durP2;ratioP2
44143;SDS011;43510;51.920;4.492;2022-09-23T00:00:30;8.77;;;3.97;;
44143;SDS011;43510;51.920;4.492;2022-09-23T00:02:55;8.68;;;3.47;;
44143;SDS011;43510;51.920;4.492;2022-09-23T00:05:21;6.38;;;3.20;;
44143;SDS011;43510;51.920;4.492;2022-09-23T00:07:47;8.23;;;3.78;;
44143;SDS011;43510;51.920;4.492;2022-09-23T00:10:14;6.20;;;3.28;;
44143;SDS011;43510;51.920;4.492;2022-09-23T00:12:39;6.60;;;3.55;;
44143;SDS011;43510;51.920;4.492;2022-09-23T00:15:05;11.70;;;3.53;;
44143;SDS011;43510;51.920;4.492;2022-09-23T00:17:31;9.13;;;4.05;;
44143;SDS011;43510;51.920;4.492;2022-09-23T00:19:56;6.22;;;3.45;;
44143;SDS011;43510;51.920;4.492;2022-09-23T00:22:22;7.43;;;3.70;;
44143;SDS011;43510;51.920;4.492;2022-09-23T00:24:47;7.30;;;3.53;;
44143;SDS011;43510;51.920;4.492;2022-09-23T00:27:13;9.52;;;4.10;;
44143;SDS011;43510;51.920;4.492;2022-09-23T00:29:39;8.73;;;3.85;;
44143;SDS011;43510;51.920;4.492;2022-09-23T00:32:06;6.43;;;3.72;;
44143;SDS011;43510;51.920;4.492;2022-09-23T00:34:32;7.65;;;4.28;;
44143;SDS011;43510;51.920;4.492;2022-09-23T00:36:57;7.43;;;3.75;;
44143;SDS011;43510;51.920;4.492;2022-09-23T00:39:23;7.43;;;3.80;;
44143;SDS011;43510;51.920;4.492;2022-09-23T00:41:51;8.40;;;4.18;;
44143;SDS011;43510;51.920;4.492;2022-09-23T00:50:23;9.70;;;4.50;;
44143;SDS011;43510;51.920;4.492;2022-09-23T00:52:58;10.13;;;4.55;;
44143;SDS011;43510;51.920;4.492;2022-09-23T00:55:26;10.02;;;4.10;;
44143;SDS011;43510;51.920;4.492;2022-09-23T00:57:56;7.78;;;3.95;;
44143;SDS011;43510;51.920;4.492;2022-09-23T01:00:25;9.60;;;3.83;;
44143;SDS011;43510;51.920;4.492;2022-09-23T01:02:50;9.05;;;4.60;;
44143;SDS011;43510;51.920;4.492;2022-09-23T01:05:21;12.07;;;4.25;;
44143;SDS011;43510;51.920;4.492;2022-09-23T01:07:47;13.65;;;4.28;;
44143;SDS011;43510;51.920;4.492;2022-09-23T01:10:17;8.88;;;3.97;;
44143;SDS011;43510;51.920;4.492;2022-09-23T01:12:52;7.95;;;4.18;;
44143;SDS011;43510;51.920;4.492;2022-09-23T01:15:57;9.18;;;4.07;;
44143;SDS011;43510;51.920;4.492;2022-09-23T01:18:41;8.85;;;4.82;;
44143;SDS011;43510;51.920;4.492;2022-09-23T01:35:09;9.23;;;3.97;;
44143;SDS011;43510;51.920;4.492;2022-09-23T01:40:23;6.35;;;3.58;;
44143;SDS011;43510;51.920;4.492;2022-09-23T01:42:57;7.72;;;3.83;;
44143;SDS011;43510;51.920;4.492;2022-09-23T01:45:44;9.70;;;4.07;;
44143;SDS011;43510;51.920;4.492;2022-09-23T01:48:20;8.52;;;3.70;;
44143;SDS011;43510;51.920;4.492;2022-09-23T01:51:17;8.10;;;3.83;;
44143;SDS011;43510;51.920;4.492;2022-09-23T01:56:35;8.15;;;3.95;;
44143;SDS011;43510;51.920;4.492;2022-09-23T02:01:44;10.60;;;4.00;;
44143;SDS011;43510;51.920;4.492;2022-09-23T02:04:46;8.00;;;3.80;;
44143;SDS011;43510;51.920;4.492;2022-09-23T02:07:22;7.32;;;3.85;;
44143;SDS011;43510;51.920;4.492;2022-09-23T02:10:02;6.60;;;3.53;;
44143;SDS011;43510;51.920;4.492;2022-09-23T02:12:33;8.50;;;3.88;;
44143;SDS011;43510;51.920;4.492;2022-09-23T02:15:03;9.52;;;3.88;;
44143;SDS011;43510;51.920;4.492;2022-09-23T02:17:49;8.15;;;3.88;;
44143;SDS011;43510;51.920;4.492;2022-09-23T02:20:21;8.60;;;4.05;;
44143;SDS011;43510;51.920;4.492;2022-09-23T02:23:00;7.03;;;3.70;;
44143;SDS011;43510;51.920;4.492;2022-09-23T02:26:07;7.68;;;4.00;;
44143;SDS011;43510;51.920;4.492;2022-09-23T02:31:54;8.73;;;4.05;;
44143;SDS011;43510;51.920;4.492;2022-09-23T02:45:35;7.95;;;4.25;;
44143;SDS011;43510;51.920;4.492;2022-09-23T02:48:04;7.35;;;3.88;;
44143;SDS011;43510;51.920;4.492;2022-09-23T02:50:38;7.50;;;3.42;;
44143;SDS011;43510;51.920;4.492;2022-09-23T02:53:04;10.65;;;4.30;;
44143;SDS011;43510;51.920;4.492;2022-09-23T02:55:32;8.45;;;4.30;;
44143;SDS011;43510;51.920;4.492;2022-09-23T02:58:02;9.45;;;4.05;;
44143;SDS011;43510;51.920;4.492;2022-09-23T03:05:58;9.15;;;4.07;;
44143;SDS011;43510;51.920;4.492;2022-09-23T03:08:45;7.22;;;4.25;;
44143;SDS011;43510;51.920;4.492;2022-09-23T03:11:15;7.03;;;3.58;;
44143;SDS011;43510;51.920;4.492;2022-09-23T03:17:04;7.43;;;3.72;;
44143;SDS011;43510;51.920;4.492;2022-09-23T03:19:52;9.30;;;4.40;;
44143;SDS011;43510;51.920;4.492;2022-09-23T03:22:27;7.80;;;4.03;;
44143;SDS011;43510;51.920;4.492;2022-09-23T03:25:05;6.95;;;3.95;;
44143;SDS011;43510;51.920;4.492;2022-09-23T03:27:35;7.95;;;3.80;;
44143;SDS011;43510;51.920;4.492;2022-09-23T03:30:03;8.73;;;3.72;;
44143;SDS011;43510;51.920;4.492;2022-09-23T03:32:30;11.45;;;3.97;;
44143;SDS011;43510;51.920;4.492;2022-09-23T03:34:59;8.45;;;4.35;;
44143;SDS011;43510;51.920;4.492;2022-09-23T03:40:32;10.65;;;4.15;;
44143;SDS011;43510;51.920;4.492;2022-09-23T03:43:05;6.50;;;3.67;;
44143;SDS011;43510;51.920;4.492;2022-09-23T03:45:31;10.10;;;4.38;;
44143;SDS011;43510;51.920;4.492;2022-09-23T03:47:59;8.65;;;4.22;;
44143;SDS011;43510;51.920;4.492;2022-09-23T03:50:25;10.55;;;4.10;;
44143;SDS011;43510;51.920;4.492;2022-09-23T03:52:51;8.73;;;4.43;;
44143;SDS011;43510;51.920;4.492;2022-09-23T03:55:18;8.57;;;3.95;;
44143;SDS011;43510;51.920;4.492;2022-09-23T03:57:44;8.30;;;4.10;;
44143;SDS011;43510;51.920;4.492;2022-09-23T04:00:10;10.13;;;4.35;;
44143;SDS011;43510;51.920;4.492;2022-09-23T04:02:37;7.88;;;3.75;;
44143;SDS011;43510;51.920;4.492;2022-09-23T04:05:03;7.88;;;3.85;;
44143;SDS011;43510;51.920;4.492;2022-09-23T04:07:29;9.48;;;4.38;;
44143;SDS011;43510;51.920;4.492;2022-09-23T04:09:54;8.52;;;3.90;;
44143;SDS011;43510;51.920;4.492;2022-09-23T04:12:21;7.68;;;4.30;;
44143;SDS011;43510;51.920;4.492;2022-09-23T04:14:46;9.07;;;4.80;;
44143;SDS011;43510;51.920;4.492;2022-09-23T04:17:12;8.70;;;3.92;;
44143;SDS011;43510;51.920;4.492;2022-09-23T04:19:37;11.45;;;4.50;;
44143;SDS011;43510;51.920;4.492;2022-09-23T04:22:03;7.50;;;4.25;;
44143;SDS011;43510;51.920;4.492;2022-09-23T04:24:28;8.00;;;3.97;;
44143;SDS011;43510;51.920;4.492;2022-09-23T04:26:54;8.25;;;4.03;;
44143;SDS011;43510;51.920;4.492;2022-09-23T04:29:21;9.73;;;4.70;;
44143;SDS011;43510;51.920;4.492;2022-09-23T04:31:48;8.55;;;4.18;;
44143;SDS011;43510;51.920;4.492;2022-09-23T04:34:13;11.45;;;4.47;;
44143;SDS011;43510;51.920;4.492;2022-09-23T04:36:45;9.40;;;3.92;;
44143;SDS011;43510;51.920;4.492;2022-09-23T04:39:12;11.32;;;4.57;;
44143;SDS011;43510;51.920;4.492;2022-09-23T04:41:42;8.35;;;4.20;;
44143;SDS011;43510;51.920;4.492;2022-09-23T04:44:10;8.48;;;4.03;;
44143;SDS011;43510;51.920;4.492;2022-09-23T04:46:36;8.38;;;4.13;;
44143;SDS011;43510;51.920;4.492;2022-09-23T04:49:03;9.63;;;4.63;;
44143;SDS011;43510;51.920;4.492;2022-09-23T04:51:30;10.05;;;4.03;;
44143;SDS011;43510;51.920;4.492;2022-09-23T04:53:55;10.68;;;4.38;;
44143;SDS011;43510;51.920;4.492;2022-09-23T04:56:21;8.20;;;4.10;;
44143;SDS011;43510;51.920;4.492;2022-09-23T04:58:48;9.05;;;4.60;;
44143;SDS011;43510;51.920;4.492;2022-09-23T05:01:18;8.63;;;4.15;;
44143;SDS011;43510;51.920;4.492;2022-09-23T05:03:48;12.50;;;3.70;;
44143;SDS011;43510;51.920;4.492;2022-09-23T05:06:14;8.05;;;4.60;;
44143;SDS011;43510;51.920;4.492;2022-09-23T05:08:40;10.38;;;4.05;;
44143;SDS011;43510;51.920;4.492;2022-09-23T05:11:10;10.30;;;4.40;;
44143;SDS011;43510;51.920;4.492;2022-09-23T05:13:35;9.48;;;4.00;;
44143;SDS011;43510;51.920;4.492;2022-09-23T05:16:02;11.40;;;4.53;;
44143;SDS011;43510;51.920;4.492;2022-09-23T05:18:32;9.35;;;4.63;;
44143;SDS011;43510;51.920;4.492;2022-09-23T05:20:59;8.88;;;4.15;;
44143;SDS011;43510;51.920;4.492;2022-09-23T05:23:25;7.75;;;3.95;;
44143;SDS011;43510;51.920;4.492;2022-09-23T05:25:55;7.93;;;4.22;;
44143;SDS011;43510;51.920;4.492;2022-09-23T05:28:23;12.13;;;3.88;;
44143;SDS011;43510;51.920;4.492;2022-09-23T05:30:48;8.30;;;4.03;;
44143;SDS011;43510;51.920;4.492;2022-09-23T05:33:14;7.38;;;4.03;;
44143;SDS011;43510;51.920;4.492;2022-09-23T05:35:44;10.38;;;4.15;;
44143;SDS011;43510;51.920;4.492;2022-09-23T05:38:11;8.32;;;3.75;;
44143;SDS011;43510;51.920;4.492;2022-09-23T05:40:36;7.90;;;4.15;;
44143;SDS011;43510;51.920;4.492;2022-09-23T05:43:02;9.73;;;4.78;;
44143;SDS011;43510;51.920;4.492;2022-09-23T05:45:28;9.63;;;4.55;;
44143;SDS011;43510;51.920;4.492;2022-09-23T05:47:53;11.07;;;4.10;;
44143;SDS011;43510;51.920;4.492;2022-09-23T05:50:19;13.73;;;4.88;;
44143;SDS011;43510;51.920;4.492;2022-09-23T05:52:44;7.95;;;4.07;;
44143;SDS011;43510;51.920;4.492;2022-09-23T05:55:10;12.23;;;4.57;;
44143;SDS011;43510;51.920;4.492;2022-09-23T05:57:35;9.88;;;4.10;;
44143;SDS011;43510;51.920;4.492;2022-09-23T06:00:01;11.85;;;4.53;;
44143;SDS011;43510;51.920;4.492;2022-09-23T06:02:26;8.52;;;4.15;;
44143;SDS011;43510;51.920;4.492;2022-09-23T06:04:52;9.30;;;4.47;;
44143;SDS011;43510;51.920;4.492;2022-09-23T06:07:17;12.30;;;4.65;;
44143;SDS011;43510;51.920;4.492;2022-09-23T06:09:43;9.88;;;3.95;;
44143;SDS011;43510;51.920;4.492;2022-09-23T06:12:11;13.38;;;4.00;;
44143;SDS011;43510;51.920;4.492;2022-09-23T06:14:38;12.65;;;4.25;;
44143;SDS011;43510;51.920;4.492;2022-09-23T06:17:03;12.65;;;4.47;;
44143;SDS011;43510;51.920;4.492;2022-09-23T06:19:29;8.63;;;3.92;;
44143;SDS011;43510;51.920;4.492;2022-09-23T06:21:54;10.93;;;4.65;;
44143;SDS011;43510;51.920;4.492;2022-09-23T06:24:20;10.82;;;4.20;;
44143;SDS011;43510;51.920;4.492;2022-09-23T06:26:46;10.05;;;3.85;;
44143;SDS011;43510;51.920;4.492;2022-09-23T06:29:12;9.80;;;4.47;;
44143;SDS011;43510;51.920;4.492;2022-09-23T06:31:38;9.05;;;3.72;;
44143;SDS011;43510;51.920;4.492;2022-09-23T06:34:07;7.00;;;3.45;;
44143;SDS011;43510;51.920;4.492;2022-09-23T06:36:34;10.10;;;4.38;;
44143;SDS011;43510;51.920;4.492;2022-09-23T06:39:00;8.55;;;4.38;;
44143;SDS011;43510;51.920;4.492;2022-09-23T06:41:26;11.13;;;4.63;;
44143;SDS011;43510;51.920;4.492;2022-09-23T06:43:53;12.40;;;5.18;;
44143;SDS011;43510;51.920;4.492;2022-09-23T06:46:18;8.98;;;3.53;;
44143;SDS011;43510;51.920;4.492;2022-09-23T06:48:45;11.43;;;4.90;;
44143;SDS011;43510;51.920;4.492;2022-09-23T06:51:11;9.95;;;4.07;;
44143;SDS011;43510;51.920;4.492;2022-09-23T06:53:45;8.20;;;3.92;;
44143;SDS011;43510;51.920;4.492;2022-09-23T06:56:11;8.65;;;4.35;;
44143;SDS011;43510;51.920;4.492;2022-09-23T06:58:37;9.60;;;5.03;;
44143;SDS011;43510;51.920;4.492;2022-09-23T07:01:04;7.72;;;4.13;;
44143;SDS011;43510;51.920;4.492;2022-09-23T07:03:32;10.55;;;4.25;;
44143;SDS011;43510;51.920;4.492;2022-09-23T07:05:58;11.57;;;4.72;;
44143;SDS011;43510;51.920;4.492;2022-09-23T07:08:24;13.10;;;4.68;;
44143;SDS011;43510;51.920;4.492;2022-09-23T07:10:52;11.32;;;4.70;;
44143;SDS011;43510;51.920;4.492;2022-09-23T07:13:19;9.80;;;4.22;;
44143;SDS011;43510;51.920;4.492;2022-09-23T07:15:54;11.60;;;4.85;;
44143;SDS011;43510;51.920;4.492;2022-09-23T07:18:22;7.95;;;3.85;;
44143;SDS011;43510;51.920;4.492;2022-09-23T07:20:49;10.32;;;4.22;;
44143;SDS011;43510;51.920;4.492;2022-09-23T07:23:17;11.48;;;4.22;;
44143;SDS011;43510;51.920;4.492;2022-09-23T07:25:43;9.75;;;4.68;;
44143;SDS011;43510;51.920;4.492;2022-09-23T07:28:10;8.18;;;4.40;;
44143;SDS011;43510;51.920;4.492;2022-09-23T07:30:37;8.90;;;4.65;;
44143;SDS011;43510;51.920;4.492;2022-09-23T07:33:03;9.73;;;4.15;;
44143;SDS011;43510;51.920;4.492;2022-09-23T07:35:30;11.15;;;4.30;;
44143;SDS011;43510;51.920;4.492;2022-09-23T07:37:57;8.85;;;3.53;;
44143;SDS011;43510;51.920;4.492;2022-09-23T07:40:22;10.88;;;4.75;;
44143;SDS011;43510;51.920;4.492;2022-09-23T07:42:48;8.95;;;4.38;;
44143;SDS011;43510;51.920;4.492;2022-09-23T07:45:13;9.85;;;3.70;;
44143;SDS011;43510;51.920;4.492;2022-09-23T07:47:39;10.48;;;4.13;;
44143;SDS011;43510;51.920;4.492;2022-09-23T07:50:05;8.77;;;3.67;;
44143;SDS011;43510;51.920;4.492;2022-09-23T07:52:36;7.82;;;4.38;;
44143;SDS011;43510;51.920;4.492;2022-09-23T07:57:31;11.80;;;4.93;;
44143;SDS011;43510;51.920;4.492;2022-09-23T07:59:58;10.88;;;3.85;;
44143;SDS011;43510;51.920;4.492;2022-09-23T08:02:26;7.85;;;4.00;;
44143;SDS011;43510;51.920;4.492;2022-09-23T08:04:52;9.93;;;4.10;;
44143;SDS011;43510;51.920;4.492;2022-09-23T08:07:18;13.55;;;4.43;;
44143;SDS011;43510;51.920;4.492;2022-09-23T08:09:44;13.40;;;4.78;;
44143;SDS011;43510;51.920;4.492;2022-09-23T08:12:11;11.02;;;5.10;;
44143;SDS011;43510;51.920;4.492;2022-09-23T08:14:39;13.98;;;4.90;;
44143;SDS011;43510;51.920;4.492;2022-09-23T08:17:05;12.85;;;4.45;;
44143;SDS011;43510;51.920;4.492;2022-09-23T08:19:30;9.73;;;4.22;;
44143;SDS011;43510;51.920;4.492;2022-09-23T08:21:56;8.57;;;4.22;;
44143;SDS011;43510;51.920;4.492;2022-09-23T08:24:22;13.65;;;4.28;;
44143;SDS011;43510;51.920;4.492;2022-09-23T08:26:48;10.65;;;4.05;;
44143;SDS011;43510;51.920;4.492;2022-09-23T08:29:17;11.30;;;4.45;;
44143;SDS011;43510;51.920;4.492;2022-09-23T08:31:45;9.95;;;4.03;;
44143;SDS011;43510;51.920;4.492;2022-09-23T08:34:10;9.45;;;3.97;;
44143;SDS011;43510;51.920;4.492;2022-09-23T08:36:36;9.60;;;3.85;;
44143;SDS011;43510;51.920;4.492;2022-09-23T08:39:02;13.90;;;3.90;;
44143;SDS011;43510;51.920;4.492;2022-09-23T08:46:56;15.02;;;6.45;;
44143;SDS011;43510;51.920;4.492;2022-09-23T08:49:38;11.85;;;4.80;;
44143;SDS011;43510;51.920;4.492;2022-09-23T08:52:44;13.90;;;4.15;;
44143;SDS011;43510;51.920;4.492;2022-09-23T08:55:13;10.43;;;4.63;;
44143;SDS011;43510;51.920;4.492;2022-09-23T09:00:22;10.95;;;4.70;;
44143;SDS011;43510;51.920;4.492;2022-09-23T09:02:55;10.50;;;4.05;;
44143;SDS011;43510;51.920;4.492;2022-09-23T09:05:23;11.15;;;3.85;;
44143;SDS011;43510;51.920;4.492;2022-09-23T09:07:51;7.55;;;3.92;;
44143;SDS011;43510;51.920;4.492;2022-09-23T09:10:21;11.27;;;4.38;;
44143;SDS011;43510;51.920;4.492;2022-09-23T09:12:51;10.88;;;4.40;;
44143;SDS011;43510;51.920;4.492;2022-09-23T09:15:23;10.18;;;3.85;;
44143;SDS011;43510;51.920;4.492;2022-09-23T09:20:38;10.73;;;4.05;;
44143;SDS011;43510;51.920;4.492;2022-09-23T09:23:22;11.13;;;4.38;;
44143;SDS011;43510;51.920;4.492;2022-09-23T09:25:57;9.25;;;4.40;;
44143;SDS011;43510;51.920;4.492;2022-09-23T09:28:27;11.43;;;4.38;;
44143;SDS011;43510;51.920;4.492;2022-09-23T09:31:00;7.13;;;3.63;;
44143;SDS011;43510;51.920;4.492;2022-09-23T09:33:39;11.65;;;4.20;;
44143;SDS011;43510;51.920;4.492;2022-09-23T09:36:28;9.07;;;4.10;;
44143;SDS011;43510;51.920;4.492;2022-09-23T09:39:02;10.02;;;3.70;;
44143;SDS011;43510;51.920;4.492;2022-09-23T09:41:28;8.52;;;3.65;;
44143;SDS011;43510;51.920;4.492;2022-09-23T09:43:58;11.02;;;3.85;;
44143;SDS011;43510;51.920;4.492;2022-09-23T09:54:38;10.18;;;3.90;;
44143;SDS011;43510;51.920;4.492;2022-09-23T09:57:04;11.73;;;3.60;;
44143;SDS011;43510;51.920;4.492;2022-09-23T09:59:41;10.20;;;3.17;;
44143;SDS011;43510;51.920;4.492;2022-09-23T10:05:02;11.48;;;3.28;;
44143;SDS011;43510;51.920;4.492;2022-09-23T10:07:31;7.40;;;3.72;;
44143;SDS011;43510;51.920;4.492;2022-09-23T10:09:57;8.60;;;3.40;;
44143;SDS011;43510;51.920;4.492;2022-09-23T10:12:45;8.07;;;3.45;;
44143;SDS011;43510;51.920;4.492;2022-09-23T10:15:26;15.13;;;3.00;;
44143;SDS011;43510;51.920;4.492;2022-09-23T10:17:58;10.27;;;3.40;;
44143;SDS011;43510;51.920;4.492;2022-09-23T10:20:33;8.05;;;3.30;;
44143;SDS011;43510;51.920;4.492;2022-09-23T10:23:08;12.18;;;3.25;;
44143;SDS011;43510;51.920;4.492;2022-09-23T10:25:40;7.47;;;3.25;;
44143;SDS011;43510;51.920;4.492;2022-09-23T10:31:03;8.85;;;3.20;;
44143;SDS011;43510;51.920;4.492;2022-09-23T10:33:31;13.65;;;3.58;;
44143;SDS011;43510;51.920;4.492;2022-09-23T10:35:56;7.20;;;3.33;;
44143;SDS011;43510;51.920;4.492;2022-09-23T10:38:22;7.78;;;3.78;;
44143;SDS011;43510;51.920;4.492;2022-09-23T10:40:47;8.82;;;3.33;;
44143;SDS011;43510;51.920;4.492;2022-09-23T10:57:26;7.63;;;3.10;;
44143;SDS011;43510;51.920;4.492;2022-09-23T11:00:22;7.70;;;3.20;;
44143;SDS011;43510;51.920;4.492;2022-09-23T11:08:32;10.50;;;3.85;;
44143;SDS011;43510;51.920;4.492;2022-09-23T11:13:45;11.23;;;3.50;;
44143;SDS011;43510;51.920;4.492;2022-09-23T11:18:54;11.95;;;3.53;;
44143;SDS011;43510;51.920;4.492;2022-09-23T11:30:01;7.75;;;3.50;;
44143;SDS011;43510;51.920;4.492;2022-09-23T11:35:27;8.65;;;3.67;;
44143;SDS011;43510;51.920;4.492;2022-09-23T11:38:00;7.65;;;3.42;;
44143;SDS011;43510;51.920;4.492;2022-09-23T11:40:49;12.13;;;4.60;;
44143;SDS011;43510;51.920;4.492;2022-09-23T11:45:52;17.25;;;4.05;;
44143;SDS011;43510;51.920;4.492;2022-09-23T11:48:43;7.97;;;3.53;;
44143;SDS011;43510;51.920;4.492;2022-09-23T11:51:13;8.27;;;3.97;;
44143;SDS011;43510;51.920;4.492;2022-09-23T11:53:49;10.90;;;4.07;;
44143;SDS011;43510;51.920;4.492;2022-09-23T11:56:25;10.88;;;3.53;;
44143;SDS011;43510;51.920;4.492;2022-09-23T12:01:59;11.23;;;4.03;;
44143;SDS011;43510;51.920;4.492;2022-09-23T12:04:32;7.88;;;3.72;;
44143;SDS011;43510;51.920;4.492;2022-09-23T12:07:03;9.32;;;4.47;;
44143;SDS011;43510;51.920;4.492;2022-09-23T12:12:26;9.98;;;3.47;;
44143;SDS011;43510;51.920;4.492;2022-09-23T12:15:09;7.40;;;3.22;;
44143;SDS011;43510;51.920;4.492;2022-09-23T12:17:43;6.75;;;3.25;;
44143;SDS011;43510;51.920;4.492;2022-09-23T12:26:22;9.25;;;3.70;;
44143;SDS011;43510;51.920;4.492;2022-09-23T12:28:50;10.85;;;3.92;;
44143;SDS011;43510;51.920;4.492;2022-09-23T12:31:22;8.98;;;4.10;;
44143;SDS011;43510;51.920;4.492;2022-09-23T12:33:59;10.23;;;3.80;;
44143;SDS011;43510;51.920;4.492;2022-09-23T12:36:43;12.02;;;4.18;;
44143;SDS011;43510;51.920;4.492;2022-09-23T12:41:47;10.82;;;4.10;;
44143;SDS011;43510;51.920;4.492;2022-09-23T12:54:53;9.70;;;4.88;;
44143;SDS011;43510;51.920;4.492;2022-09-23T13:00:41;9.75;;;4.80;;
44143;SDS011;43510;51.920;4.492;2022-09-23T13:02:51;9.73;;;4.43;;
44143;SDS011;43510;51.920;4.492;2022-09-23T13:05:46;11.02;;;4.43;;
44143;SDS011;43510;51.920;4.492;2022-09-23T13:08:34;9.32;;;4.78;;
44143;SDS011;43510;51.920;4.492;2022-09-23T13:11:04;10.82;;;4.22;;
44143;SDS011;43510;51.920;4.492;2022-09-23T13:13:38;10.02;;;4.95;;
44143;SDS011;43510;51.920;4.492;2022-09-23T13:16:17;8.60;;;4.85;;
44143;SDS011;43510;51.920;4.492;2022-09-23T13:18:50;9.50;;;4.57;;
44143;SDS011;43510;51.920;4.492;2022-09-23T13:21:17;10.65;;;4.45;;
44143;SDS011;43510;51.920;4.492;2022-09-23T13:27:15;12.63;;;5.07;;
44143;SDS011;43510;51.920;4.492;2022-09-23T13:30:15;13.60;;;4.45;;
44143;SDS011;43510;51.920;4.492;2022-09-23T13:32:45;7.65;;;4.38;;
44143;SDS011;43510;51.920;4.492;2022-09-23T13:35:36;14.18;;;5.10;;
44143;SDS011;43510;51.920;4.492;2022-09-23T13:40:30;9.65;;;3.97;;
44143;SDS011;43510;51.920;4.492;2022-09-23T13:43:08;8.93;;;4.40;;
44143;SDS011;43510;51.920;4.492;2022-09-23T13:45:41;9.90;;;4.32;;
44143;SDS011;43510;51.920;4.492;2022-09-23T13:48:11;10.35;;;4.63;;
44143;SDS011;43510;51.920;4.492;2022-09-23T13:50:42;12.65;;;4.90;;
44143;SDS011;43510;51.920;4.492;2022-09-23T13:53:15;8.07;;;4.68;;
44143;SDS011;43510;51.920;4.492;2022-09-23T13:56:26;12.35;;;5.10;;
44143;SDS011;43510;51.920;4.492;2022-09-23T13:58:45;10.00;;;4.93;;
44143;SDS011;43510;51.920;4.492;2022-09-23T14:03:57;10.98;;;4.97;;
44143;SDS011;43510;51.920;4.492;2022-09-23T14:06:22;10.43;;;5.50;;
44143;SDS011;43510;51.920;4.492;2022-09-23T14:08:52;10.93;;;5.05;;
44143;SDS011;43510;51.920;4.492;2022-09-23T14:11:19;11.07;;;5.30;;
44143;SDS011;43510;51.920;4.492;2022-09-23T14:13:57;14.95;;;5.60;;
44143;SDS011;43510;51.920;4.492;2022-09-23T14:16:29;12.77;;;5.60;;
44143;SDS011;43510;51.920;4.492;2022-09-23T14:18:56;11.35;;;5.72;;
44143;SDS011;43510;51.920;4.492;2022-09-23T14:21:31;13.18;;;5.70;;
44143;SDS011;43510;51.920;4.492;2022-09-23T14:24:22;10.68;;;5.32;;
44143;SDS011;43510;51.920;4.492;2022-09-23T14:26:55;11.52;;;5.20;;
44143;SDS011;43510;51.920;4.492;2022-09-23T14:29:31;13.20;;;5.55;;
44143;SDS011;43510;51.920;4.492;2022-09-23T14:32:05;12.98;;;6.38;;
44143;SDS011;43510;51.920;4.492;2022-09-23T14:34:52;17.40;;;6.32;;
44143;SDS011;43510;51.920;4.492;2022-09-23T14:40:11;15.35;;;6.28;;
44143;SDS011;43510;51.920;4.492;2022-09-23T14:42:45;10.85;;;5.47;;
44143;SDS011;43510;51.920;4.492;2022-09-23T14:45:19;12.27;;;5.88;;
44143;SDS011;43510;51.920;4.492;2022-09-23T14:47:52;14.63;;;6.28;;
44143;SDS011;43510;51.920;4.492;2022-09-23T14:50:24;13.82;;;6.95;;
44143;SDS011;43510;51.920;4.492;2022-09-23T14:55:46;12.38;;;5.97;;
44143;SDS011;43510;51.920;4.492;2022-09-23T14:58:17;14.30;;;7.57;;
44143;SDS011;43510;51.920;4.492;2022-09-23T15:00:57;13.90;;;7.28;;
44143;SDS011;43510;51.920;4.492;2022-09-23T15:03:24;13.63;;;6.07;;
44143;SDS011;43510;51.920;4.492;2022-09-23T15:05:55;13.32;;;6.53;;
44143;SDS011;43510;51.920;4.492;2022-09-23T15:08:25;13.43;;;6.88;;
44143;SDS011;43510;51.920;4.492;2022-09-23T15:10:51;11.85;;;6.40;;
44143;SDS011;43510;51.920;4.492;2022-09-23T15:13:18;14.50;;;6.35;;
44143;SDS011;43510;51.920;4.492;2022-09-23T15:15:47;16.45;;;7.38;;
44143;SDS011;43510;51.920;4.492;2022-09-23T15:21:28;13.52;;;8.00;;
44143;SDS011;43510;51.920;4.492;2022-09-23T15:23:50;13.70;;;7.63;;
44143;SDS011;43510;51.920;4.492;2022-09-23T15:26:21;15.25;;;8.13;;
44143;SDS011;43510;51.920;4.492;2022-09-23T15:28:49;18.35;;;8.13;;
44143;SDS011;43510;51.920;4.492;2022-09-23T15:31:21;13.55;;;8.45;;
44143;SDS011;43510;51.920;4.492;2022-09-23T15:33:50;15.32;;;8.07;;
44143;SDS011;43510;51.920;4.492;2022-09-23T15:36:19;14.70;;;7.80;;
44143;SDS011;43510;51.920;4.492;2022-09-23T15:38:47;15.98;;;8.23;;
44143;SDS011;43510;51.920;4.492;2022-09-23T15:41:13;16.30;;;7.78;;
44143;SDS011;43510;51.920;4.492;2022-09-23T15:43:40;24.45;;;9.02;;
44143;SDS011;43510;51.920;4.492;2022-09-23T15:46:07;18.15;;;8.27;;
44143;SDS011;43510;51.920;4.492;2022-09-23T15:48:42;18.00;;;8.73;;
44143;SDS011;43510;51.920;4.492;2022-09-23T15:51:19;16.08;;;8.02;;
44143;SDS011;43510;51.920;4.492;2022-09-23T15:53:45;16.20;;;8.40;;
44143;SDS011;43510;51.920;4.492;2022-09-23T15:56:12;20.10;;;9.93;;
44143;SDS011;43510;51.920;4.492;2022-09-23T15:58:37;19.17;;;9.27;;
44143;SDS011;43510;51.920;4.492;2022-09-23T16:01:03;20.27;;;10.30;;
44143;SDS011;43510;51.920;4.492;2022-09-23T16:03:29;18.80;;;8.95;;
44143;SDS011;43510;51.920;4.492;2022-09-23T16:05:56;19.85;;;9.52;;
44143;SDS011;43510;51.920;4.492;2022-09-23T16:08:26;21.45;;;9.90;;
44143;SDS011;43510;51.920;4.492;2022-09-23T16:10:53;18.33;;;9.27;;
44143;SDS011;43510;51.920;4.492;2022-09-23T16:13:18;21.05;;;10.38;;
44143;SDS011;43510;51.920;4.492;2022-09-23T16:15:44;21.67;;;10.60;;
44143;SDS011;43510;51.920;4.492;2022-09-23T16:18:11;17.98;;;10.52;;
44143;SDS011;43510;51.920;4.492;2022-09-23T16:20:37;18.35;;;9.15;;
44143;SDS011;43510;51.920;4.492;2022-09-23T16:25:58;18.10;;;9.95;;
44143;SDS011;43510;51.920;4.492;2022-09-23T16:28:25;18.50;;;10.05;;
44143;SDS011;43510;51.920;4.492;2022-09-23T16:30:51;20.10;;;9.38;;
44143;SDS011;43510;51.920;4.492;2022-09-23T16:33:16;20.58;;;9.27;;
44143;SDS011;43510;51.920;4.492;2022-09-23T16:35:41;14.77;;;8.88;;
44143;SDS011;43510;51.920;4.492;2022-09-23T16:40:38;16.35;;;8.63;;
44143;SDS011;43510;51.920;4.492;2022-09-23T16:43:03;16.05;;;8.52;;
44143;SDS011;43510;51.920;4.492;2022-09-23T16:45:29;14.23;;;8.55;;
44143;SDS011;43510;51.920;4.492;2022-09-23T16:47:55;18.85;;;9.05;;
44143;SDS011;43510;51.920;4.492;2022-09-23T16:50:21;14.95;;;8.40;;
44143;SDS011;43510;51.920;4.492;2022-09-23T16:52:49;18.08;;;9.00;;
44143;SDS011;43510;51.920;4.492;2022-09-23T16:55:16;14.85;;;8.27;;
44143;SDS011;43510;51.920;4.492;2022-09-23T16:57:41;22.23;;;8.82;;
44143;SDS011;43510;51.920;4.492;2022-09-23T17:00:11;16.42;;;8.25;;
44143;SDS011;43510;51.920;4.492;2022-09-23T17:02:57;14.77;;;8.32;;
44143;SDS011;43510;51.920;4.492;2022-09-23T17:05:42;15.50;;;8.73;;
44143;SDS011;43510;51.920;4.492;2022-09-23T17:08:08;19.15;;;8.13;;
44143;SDS011;43510;51.920;4.492;2022-09-23T17:10:37;14.15;;;8.10;;
44143;SDS011;43510;51.920;4.492;2022-09-23T17:13:03;14.82;;;7.93;;
44143;SDS011;43510;51.920;4.492;2022-09-23T17:15:29;17.77;;;8.80;;
44143;SDS011;43510;51.920;4.492;2022-09-23T17:17:55;17.45;;;8.35;;
44143;SDS011;43510;51.920;4.492;2022-09-23T17:20:20;21.25;;;10.13;;
44143;SDS011;43510;51.920;4.492;2022-09-23T17:22:45;18.38;;;9.98;;
44143;SDS011;43510;51.920;4.492;2022-09-23T17:25:11;15.98;;;8.70;;
44143;SDS011;43510;51.920;4.492;2022-09-23T17:27:36;18.08;;;9.75;;
44143;SDS011;43510;51.920;4.492;2022-09-23T17:30:03;18.20;;;9.82;;
44143;SDS011;43510;51.920;4.492;2022-09-23T17:32:29;22.05;;;10.85;;
44143;SDS011;43510;51.920;4.492;2022-09-23T17:34:55;22.05;;;11.15;;
44143;SDS011;43510;51.920;4.492;2022-09-23T17:37:20;27.70;;;13.07;;
44143;SDS011;43510;51.920;4.492;2022-09-23T17:39:45;23.35;;;12.07;;
44143;SDS011;43510;51.920;4.492;2022-09-23T17:42:11;22.13;;;12.18;;
44143;SDS011;43510;51.920;4.492;2022-09-23T17:44:37;23.83;;;12.18;;
44143;SDS011;43510;51.920;4.492;2022-09-23T17:47:02;23.90;;;12.32;;
44143;SDS011;43510;51.920;4.492;2022-09-23T17:49:31;26.83;;;12.73;;